Home   Weather   Alaska   Past weeks
Flag for North Macedonia

Past Weather in Alaska, North Macedonia — Yesterday and Last 2 Weeks

Currently: 57 °F. Clear. (Weather station: Skopje-Petrovec, North Macedonia). See more current weather

Past Weather in Alaska — Graph

°F

Alaska Temperature Yesterday

Maximum temperature yesterday: 72 °F (at 2:30 pm)
Minimum temperature yesterday: 55 °F (at 3:00 am)
Average temperature yesterday: 62 °F

High & Low Weather Summary for the Past Weeks

 TemperatureHumidityPressure
High82 °F (Sep 28, 3:00 pm)100% (Sep 18, 3:00 am)30.21 "Hg (Sep 18, 3:00 am)
Low36 °F (Sep 24, 6:00 am)27% (Sep 24, 4:30 pm)29.59 "Hg (Sep 17, 8:00 pm)
Average59 °F72%29.97 "Hg
* Reported Sep 17 8:00 pm — Oct 2 8:30 pm, Alaska. Weather by CustomWeather, © 2022

Note: Actual official high and low records may vary slightly from our data, if they occured in-between our weather recording intervals... More about our weather records

Alaska Weather History for the Previous 24 Hours

Scroll right to see more
 ConditionsComfort  
Time TempWeatherWind HumidityBarometerVisibility
8:30 pm
Sun, Oct 2
57 °FClear.2 mph82%30.07 "Hg10 mi
8:00 pm59 °FClear.No wind77%30.07 "Hg10 mi
7:30 pm61 °FClear.1 mph72%30.07 "Hg10 mi
7:00 pm63 °FClear.No wind68%30.07 "Hg10 mi
6:30 pm66 °FClear.2 mph60%30.07 "Hg10 mi
6:00 pm70 °FSunny.7 mph50%30.07 "Hg10 mi
5:30 pm72 °FSunny.9 mph41%30.07 "Hg10 mi
5:00 pm73 °FSunny.8 mph38%30.07 "Hg10 mi
4:00 pm75 °FSunny.13 mph36%30.09 "Hg10 mi
3:30 pm75 °FPassing clouds.14 mph36%30.07 "HgN/A
3:00 pm75 °FPassing clouds.14 mph36%30.09 "HgN/A
2:30 pm73 °FPassing clouds.12 mph38%30.09 "HgN/A
2:00 pm73 °FPassing clouds.12 mph38%30.09 "HgN/A
1:30 pm73 °FPassing clouds.14 mph38%30.09 "HgN/A
1:00 pm73 °FPassing clouds.10 mph44%30.09 "HgN/A
12:30 pm73 °FPassing clouds.9 mph44%30.12 "HgN/A
12:00 pm70 °FPassing clouds.13 mph57%30.12 "HgN/A
11:30 am70 °FPassing clouds.10 mph57%30.12 "HgN/A
11:00 am68 °FPassing clouds.12 mph60%30.12 "HgN/A
10:00 am68 °FPassing clouds.13 mph60%30.12 "HgN/A
9:30 am66 °FPassing clouds.12 mph68%30.12 "HgN/A
9:00 am66 °FPassing clouds.10 mph64%30.12 "HgN/A
8:30 am63 °FPassing clouds.2 mph94%30.09 "HgN/A
8:00 am59 °FPassing clouds.2 mph94%30.09 "HgN/A
7:30 am55 °FPassing clouds.No wind100%30.07 "HgN/A
7:00 am55 °FSunny.No wind94%30.07 "Hg10 mi
6:30 am55 °FPassing clouds.2 mph94%30.04 "HgN/A
6:00 am57 °FPassing clouds.3 mph100%30.04 "Hg4 mi
5:30 am59 °FFog.1 mph100%30.04 "Hg0 mi
5:00 am59 °FFog.No wind94%30.01 "Hg1 mi
4:30 am61 °FFog.1 mph94%30.01 "Hg1 mi
4:00 am61 °FPassing clouds.1 mph94%29.98 "Hg4 mi
3:30 am59 °FFog.No wind94%29.98 "Hg1 mi
3:00 am59 °FFog.1 mph94%29.98 "Hg1 mi
1:30 am63 °FPassing clouds.2 mph94%29.95 "HgN/A
12:00 am63 °FPassing clouds.2 mph100%29.95 "HgN/A
11:30 pm
Sat, Oct 1
63 °FPassing clouds.3 mph94%29.95 "HgN/A
11:00 pm63 °FThunderstorms. Partly cloudy.2 mph100%29.95 "Hg3 mi
10:30 pm63 °FPassing clouds.2 mph100%29.95 "HgN/A
10:00 pm63 °FThunderstorms. Mostly cloudy.5 mph100%29.95 "HgN/A
9:30 pm64 °FThunderstorms. Partly cloudy.5 mph94%29.89 "HgN/A
9:00 pm64 °FThundershowers. Passing clouds.1 mph94%29.95 "HgN/A
Weather by CustomWeather, © 2022

See weather overview